Latest Weather Observations for Tarcoola

IDS60801

Issued at 8:35 pm CST Tuesday 2 September 2014 (issued every 30 minutes, with the page automatically refreshed every 10 minutes)

About weather observations | Map of weather stations | Latest weather observations for SA | Other Formats
Station Details ID: 016098 Name: TARCOOLA AERO Lat: -30.71 Lon: 134.58 Height: 123.0 m
Data from the previous 72 hours. | See also: Recent months at Tarcoola
Date/Time
CST
Temp
°C
App
Temp
°C
Dew
Point
Rel
Hum
%
Delta-T
°C
Wind Press
QNH
hPa
Press
MSL
hPa
Rain
since 9 am
mm
Dir
 
Spd
km/h
Gust
km/h
Spd
kts
Gust
kts
02/08:30pm 13.0 8.6 0.1 41 5.4 ESE 13 17 7 9 1026.4 1026.2 0.0
02/08:00pm 13.0 8.6 0.1 41 5.4 ESE 13 17 7 9 1026.4 1026.2 0.0
02/07:30pm 12.7 8.9 -0.5 40 5.4 ESE 9 11 5 6 1026.4 1026.2 0.0
02/07:00pm 13.7 9.9 -0.7 37 6.0 SE 9 11 5 6 1026.2 1026.0 0.0
02/06:30pm 15.3 11.9 -0.9 33 6.7 SSE 7 9 4 5 1026.2 1026.0 0.0
02/06:00pm 16.7 13.9 -0.5 31 7.3 SSE 4 11 2 6 1025.9 1025.7 0.0
02/05:30pm 17.3 13.2 -0.4 30 7.6 S 11 17 6 9 1025.5 1025.3 0.0
02/05:00pm 17.4 13.2 -0.8 29 7.8 SSE 11 19 6 10 1025.3 1025.1 0.0
02/04:30pm 17.8 14.1 0.0 30 7.7 SE 9 15 5 8 1025.6 1025.4 0.0
02/04:00pm 18.2 14.6 0.4 30 7.9 SSW 9 22 5 12 1025.5 1025.3 0.0
02/03:30pm 17.8 14.0 -0.5 29 7.8 ESE 9 17 5 9 1025.7 1025.5 0.0
02/03:00pm 17.8 13.7 0.0 30 7.7 E 11 22 6 12 1025.9 1025.7 0.0
02/02:30pm 17.3 13.3 0.5 32 7.3 SSW 11 20 6 11 1026.1 1025.9 0.0
02/02:00pm 17.0 13.0 0.2 32 7.3 SSE 11 22 6 12 1026.6 1026.4 0.0
02/01:30pm 16.7 11.9 -0.1 32 7.2 ESE 15 24 8 13 1027.1 1026.9 0.0
02/01:00pm 16.3 11.5 0.4 34 6.9 SSE 15 22 8 12 1027.5 1027.4 0.0
02/12:30pm 16.1 11.8 1.0 36 6.6 SSE 13 30 7 16 1028.1 1028.0 0.0
02/12:00pm 15.5 11.2 0.9 37 6.3 SE 13 24 7 13 1028.5 1028.4 0.0
02/11:30am 15.0 10.3 0.8 38 6.1 SE 15 24 8 13 1029.2 1029.0 0.0
02/11:00am 13.9 8.8 0.5 40 5.7 SSE 17 26 9 14 1029.4 1029.2 0.0
02/10:30am 13.3 7.8 0.3 41 5.4 SSE 19 30 10 16 1029.2 1029.0 0.0
02/10:00am 12.9 7.8 0.6 43 5.2 S 17 26 9 14 1029.3 1029.1 0.0
02/09:30am 12.2 7.3 1.8 49 4.4 SSE 17 24 9 13 1029.5 1029.3 0.0
02/09:00am 10.9 6.3 3.7 61 3.2 S 17 24 9 13 1029.5 1029.3 0.0
02/08:30am 8.9 5.2 4.7 75 1.9 S 13 15 7 8 1029.4 1029.2 0.0
02/08:00am 6.9 5.0 4.9 87 0.9 SW 4 7 2 4 1029.1 1028.9 0.0
02/07:30am 4.6 2.8 3.7 94 0.4 W 2 7 1 4 1028.6 1028.5 0.0
02/07:00am 2.4 -0.7 1.4 93 0.4 WSW 7 9 4 5 1028.2 1028.1 0.0
02/06:30am 1.7 -1.9 0.5 92 0.4 WSW 9 11 5 6 1028.1 1028.0 0.0
02/06:00am 1.2 -2.1 -0.1 91 0.5 W 7 9 4 5 1027.9 1027.8 0.0
02/05:30am 1.7 -0.2 0.4 91 0.5 CALM 0 0 0 0 1027.4 1027.3 0.0
02/05:00am 1.9 0.0 0.6 91 0.5 CALM 0 0 0 0 1027.1 1026.9 0.0
02/04:30am 2.0 0.1 0.5 90 0.6 SW 0 0 0 0 1026.7 1026.5 0.0
02/04:00am 2.9 1.1 1.3 89 0.6 CALM 0 0 0 0 1026.7 1026.5 0.0
02/03:30am 3.9 0.5 2.1 88 0.7 SSW 9 9 5 5 1026.5 1026.3 0.0
02/03:00am 5.2 2.4 3.4 88 0.7 WSW 7 9 4 5 1026.7 1026.5 0.0
02/02:30am 5.5 2.0 3.5 87 0.8 WSW 11 13 6 7 1026.7 1026.5 0.0
02/02:00am 6.1 3.4 3.6 84 1.1 W 7 9 4 5 1026.6 1026.4 0.0
02/01:30am 6.4 3.9 4.6 88 0.8 SW 7 11 4 6 1026.3 1026.1 0.0
02/01:00am 5.2 3.7 3.1 86 0.9 CALM 0 0 0 0 1026.5 1026.3 0.0
02/12:30am 5.9 3.1 3.2 83 1.1 SW 7 7 4 4 1026.5 1026.3 0.0
02/12:00am 7.1 4.6 3.7 79 1.4 SW 6 7 3 4 1026.4 1026.2 0.0
 
Date/Time
CST
Temp
°C
App
Temp
°C
Dew
Point
Rel
Hum
%
Delta-T
°C
Wind Press
QNH
hPa
Press
MSL
hPa
Rain
since 9 am
mm
Dir
 
Spd
km/h
Gust
km/h
Spd
kts
Gust
kts
01/11:30pm 8.4 5.5 4.8 78 1.6 SSW 9 11 5 6 1026.3 1026.1 0.0
01/11:00pm 9.0 5.7 4.8 75 1.9 SW 11 13 6 7 1026.4 1026.2 0.0
01/10:30pm 10.4 6.5 5.2 70 2.4 WSW 15 20 8 11 1026.4 1026.2 0.0
01/10:00pm 11.0 7.5 5.5 69 2.5 SW 13 20 7 11 1025.7 1025.5 0.0
01/09:30pm 10.5 6.9 5.1 69 2.5 SW 13 17 7 9 1025.5 1025.3 0.0
01/09:00pm 11.2 6.8 4.9 65 2.9 SW 17 24 9 13 1025.4 1025.2 0.0
01/08:30pm 11.9 7.2 5.1 63 3.1 SW 19 26 10 14 1025.0 1024.8 0.0
01/08:00pm 12.5 6.9 5.4 62 3.3 SSW 24 33 13 18 1024.3 1024.1 0.0
01/07:30pm 13.3 7.6 5.0 57 3.9 SSW 24 39 13 21 1023.7 1023.5 0.0
01/07:00pm 14.2 7.8 5.0 54 4.3 SW 28 41 15 22 1023.0 1022.8 0.0
01/06:30pm 14.7 9.6 6.0 56 4.2 SW 22 30 12 16 1022.2 1022.0 0.0
01/06:00pm 15.6 9.3 5.8 52 4.7 SW 28 39 15 21 1021.4 1021.2 0.0
01/05:31pm 16.6 9.4 5.9 49 5.2 SW 33 52 18 28 1020.8 1020.6 0.0
01/05:30pm 16.6 9.0 5.9 49 5.2 SW 35 52 19 28 1020.8 1020.6 0.0
01/05:00pm 17.3 9.2 5.3 45 5.8 SW 37 57 20 31 1020.2 1020.0 0.0
01/04:53pm 18.0 10.2 3.1 37 6.9 SW 33 52 18 28 1020.0 1019.8 0.0
01/04:30pm 17.6 10.2 5.2 44 6.0 SW 33 48 18 26 1019.5 1019.3 0.0
01/04:00pm 18.1 10.6 4.7 41 6.4 SW 33 44 18 24 1019.3 1019.1 0.0
01/03:30pm 18.4 10.3 3.1 36 7.1 SW 35 46 19 25 1019.1 1018.9 0.0
01/03:00pm 18.1 11.7 6.9 48 5.6 SW 30 41 16 22 1018.9 1018.7 0.0
01/02:30pm 17.6 12.1 9.0 57 4.5 WSW 28 39 15 21 1018.9 1018.7 0.0
01/02:00pm 16.9 12.3 9.8 63 3.7 SW 24 33 13 18 1019.0 1018.8 0.0
01/01:30pm 16.0 11.5 10.1 68 3.1 WSW 24 32 13 17 1019.1 1018.9 0.0
01/01:00pm 15.1 11.2 10.7 75 2.3 WSW 22 32 12 17 1019.3 1019.1 0.0
01/12:44pm 14.0 8.4 11.5 85 1.3 WSW 32 50 17 27 1019.4 1019.2 0.0
01/12:30pm 16.2 10.3 9.2 63 3.6 WSW 30 39 16 21 1018.9 1018.7 0.0
01/12:00pm 16.0 9.6 8.5 61 3.8 W 32 43 17 23 1019.2 1019.0 0.0
01/11:30am 16.0 11.9 10.1 68 3.1 W 22 33 12 18 1019.1 1018.9 0.0
01/11:00am 15.4 11.4 10.6 73 2.6 W 22 32 12 17 1019.1 1018.9 0.0
01/10:30am 15.1 12.8 11.9 81 1.7 W 15 20 8 11 1018.8 1018.6 0.0
01/10:00am 14.4 12.5 11.9 85 1.4 WNW 13 15 7 8 1018.8 1018.6 0.0
01/09:30am 13.9 12.5 12.1 89 1.0 W 11 15 6 8 1018.8 1018.6 0.0
01/09:00am 13.5 12.4 11.9 90 0.9 WSW 9 13 5 7 1018.5 1018.5 1.2
01/08:30am 13.3 11.8 11.9 91 0.8 WSW 11 15 6 8 1018.4 1018.4 1.2
01/08:00am 13.1 10.1 11.8 92 0.7 S 19 22 10 12 1017.3 1017.3 1.2
01/07:30am 13.1 11.2 11.7 91 0.7 W 13 19 7 10 1018.4 1018.4 1.0
01/07:00am 13.0 10.3 11.6 91 0.7 SW 17 20 9 11 1017.6 1017.6 0.8
01/06:30am 13.3 10.9 11.5 89 1.0 WSW 15 20 8 11 1017.5 1017.5 0.2
01/06:00am 14.0 11.7 10.6 80 1.8 SW 13 17 7 9 1016.7 1016.7 0.0
01/05:30am 14.1 11.4 10.5 79 1.9 SW 15 20 8 11 1016.1 1016.1 0.0
01/05:00am 14.0 11.6 10.2 78 2.0 SW 13 17 7 9 1015.7 1015.7 0.0
01/04:30am 14.1 12.1 10.1 77 2.1 SW 11 15 6 8 1015.3 1015.3 0.0
01/04:00am 14.1 12.4 9.9 76 2.2 SSW 9 15 5 8 1014.9 1014.9 0.0
01/03:30am 14.1 11.6 9.7 75 2.3 SW 13 15 7 8 1015.1 1015.1 0.0
01/03:00am 14.3 11.8 9.7 74 2.4 SW 13 17 7 9 1015.0 1015.0 0.0
01/02:30am 14.3 11.7 9.3 72 2.6 SW 13 17 7 9 1014.5 1014.5 0.0
01/02:00am 14.7 12.8 9.1 69 2.9 SSW 9 11 5 6 1014.0 1014.0 0.0
01/01:30am 15.2 12.9 9.1 67 3.1 SSW 11 15 6 8 1014.1 1014.1 0.0
01/01:00am 15.8 13.9 9.0 64 3.5 SSW 9 13 5 7 1014.3 1014.3 0.0
01/12:30am 16.0 14.5 9.0 63 3.6 E 7 11 4 6 1013.6 1013.5 0.0
01/12:00am 16.1 13.5 9.3 64 3.5 E 13 20 7 11 1013.3 1013.2 0.0
 
Date/Time
CST
Temp
°C
App
Temp
°C
Dew
Point
Rel
Hum
%
Delta-T
°C
Wind Press
QNH
hPa
Press
MSL
hPa
Rain
since 9 am
mm
Dir
 
Spd
km/h
Gust
km/h
Spd
kts
Gust
kts
31/11:30pm 16.4 13.0 9.3 63 3.7 ESE 17 20 9 11 1013.3 1013.2 0.0
31/11:00pm 16.6 12.7 9.5 63 3.7 SSE 20 28 11 15 1013.7 1013.6 0.0
31/10:30pm 16.9 13.0 9.6 62 3.8 S 20 28 11 15 1014.3 1014.3 0.0
31/10:00pm 17.9 11.9 7.0 49 5.5 SSW 28 43 15 23 1014.5 1014.5 0.0
31/09:48pm 18.2 11.6 4.4 40 6.6 SW 28 37 15 20 1015.1 1015.1 0.0
31/09:30pm 18.7 14.9 3.7 37 7.1 SSW 13 19 7 10 1013.2 1013.1 0.0
31/09:00pm 19.3 14.8 2.2 32 7.9 SSW 15 20 8 11 1012.8 1012.7 0.0
31/08:30pm 19.9 14.7 -0.1 26 8.9 SSW 17 22 9 12 1012.6 1012.5 0.0
31/08:00pm 20.8 15.4 -1.1 23 9.6 SSW 17 22 9 12 1012.2 1012.1 0.0
31/07:30pm 22.0 15.3 -1.3 21 10.3 SSW 24 35 13 19 1011.6 1011.6 0.0
31/07:00pm 23.2 17.6 -3.2 17 11.3 SSW 17 24 9 13 1011.2 1011.2 0.0
31/06:30pm 25.3 18.1 -5.1 13 12.8 SSW 24 32 13 17 1010.7 1010.7 0.0
31/06:00pm 27.3 19.8 -4.6 12 13.8 SW 26 43 14 23 1010.2 1010.2 0.0
31/05:30pm 29.2 20.8 -5.5 10 15.1 SW 30 39 16 21 1009.8 1009.8 0.0
31/05:00pm 31.3 23.6 -6.8 8 16.4 W 26 35 14 19 1009.4 1009.4 0.0
31/04:30pm 31.7 23.2 -6.6 8 16.7 NW 30 41 16 22 1009.4 1009.4 0.0
31/04:00pm 31.4 23.3 -6.8 8 16.5 NW 28 37 15 20 1009.6 1009.6 0.0
31/03:30pm 31.3 22.2 -6.8 8 16.5 NW 33 48 18 26 1009.8 1009.8 0.0
31/03:08pm 32.3 23.9 -6.1 8 16.9 NNW 30 48 16 26 1010.0 1010.0 0.0
31/03:00pm 31.0 22.6 -5.5 9 16.1 NW 30 44 16 24 1010.1 1010.1 0.0
31/02:46pm 31.5 22.2 -5.2 9 16.3 NW 35 59 19 32 1010.3 1010.3 0.0
31/02:30pm 31.9 22.9 -6.4 8 16.7 NNW 33 46 18 25 1010.6 1010.6 0.0
31/02:00pm 31.0 22.1 -5.5 9 16.1 N 33 46 18 25 1010.9 1010.9 0.0
31/01:30pm 29.8 21.1 -5.1 10 15.3 N 32 44 17 24 1011.7 1011.7 0.0
31/01:00pm 29.6 20.7 -5.2 10 15.2 N 33 44 18 24 1012.5 1012.4 0.0
31/12:30pm 29.5 20.8 -5.3 10 15.2 N 32 43 17 23 1013.2 1013.1 0.0
31/12:15pm 29.1 20.7 -5.6 10 15.0 N 30 48 16 26 1013.4 1013.3 0.0
31/12:00pm 28.5 19.6 -4.8 11 14.5 N 33 44 18 24 1013.8 1013.8 0.0
31/11:30am 27.2 18.4 -5.8 11 14.0 N 32 41 17 22 1014.3 1014.3 0.0
31/11:00am 26.8 18.1 -4.9 12 13.6 N 32 48 17 26 1014.8 1014.8 0.0
31/10:30am 25.1 15.3 -6.3 12 12.9 N 37 48 20 26 1015.3 1015.3 0.0
31/10:00am 24.2 15.4 -5.9 13 12.4 N 32 43 17 23 1015.8 1015.8 0.0
31/09:30am 22.3 13.8 -6.5 14 11.5 N 30 39 16 21 1015.8 1015.8 0.0
31/09:00am 19.9 11.7 -7.5 15 10.4 N 28 39 15 21 1016.0 1016.0 0.0
31/08:30am 16.7 10.3 -7.0 19 8.8 N 19 24 10 13 1016.2 1016.2 0.0
31/08:00am 14.8 8.9 -6.1 23 7.8 N 17 24 9 13 1016.3 1016.3 0.0
31/07:30am 13.0 7.9 -5.5 27 6.8 NNE 13 15 7 8 1016.2 1016.2 0.0
31/07:00am 10.0 5.3 -5.5 33 5.5 NNE 11 11 6 6 1016.3 1016.3 0.0
31/06:30am 11.1 6.0 -5.4 31 5.9 NNE 13 17 7 9 1016.2 1016.2 0.0
31/06:00am 12.1 6.2 -5.4 29 6.4 NNE 17 20 9 11 1015.8 1015.8 0.0
31/05:30am 12.8 6.6 -4.8 29 6.6 NNE 19 20 10 11 1015.6 1015.6 0.0
31/05:00am 12.3 6.5 -4.8 30 6.3 NNE 17 20 9 11 1015.4 1015.4 0.0
31/04:30am 12.6 6.8 -4.5 30 6.4 NNE 17 20 9 11 1015.5 1015.5 0.0
31/04:00am 12.1 6.3 -4.5 31 6.2 NNE 17 20 9 11 1015.6 1015.6 0.0
31/03:30am 11.7 5.9 -4.8 31 6.1 NNE 17 17 9 9 1015.6 1015.6 0.0
31/03:00am 11.9 6.1 -5.1 30 6.2 NNE 17 17 9 9 1015.9 1015.9 0.0
31/02:30am 12.6 7.5 -4.9 29 6.5 NNE 13 15 7 8 1015.9 1015.9 0.0
31/02:00am 13.9 8.5 -4.8 27 7.1 NNE 15 19 8 10 1016.1 1016.1 0.0
31/01:30am 14.7 8.9 -5.1 25 7.5 NNE 17 20 9 11 1016.4 1016.4 0.0
31/01:00am 14.8 8.9 -5.5 24 7.6 NNE 17 20 9 11 1016.7 1016.7 0.0
31/12:30am 14.4 8.5 -5.9 24 7.5 NNE 17 19 9 10 1017.0 1017.0 0.0
31/12:00am 14.2 8.6 -6.1 24 7.5 NNE 15 17 8 9 1017.3 1017.3 0.0
 
Date/Time
CST
Temp
°C
App
Temp
°C
Dew
Point
Rel
Hum
%
Delta-T
°C
Wind Press
QNH
hPa
Press
MSL
hPa
Rain
since 9 am
mm
Dir
 
Spd
km/h
Gust
km/h
Spd
kts
Gust
kts
30/11:30pm 13.9 8.4 -5.8 25 7.3 NNE 15 17 8 9 1017.5 1017.5 0.0
30/11:00pm 13.9 8.4 -5.8 25 7.3 NNE 15 17 8 9 1017.7 1017.7 0.0
30/10:30pm 13.1 8.3 -5.9 26 6.9 NE 11 11 6 6 1018.0 1018.0 0.0
30/10:00pm 13.7 9.3 -5.4 26 7.1 NE 9 11 5 6 1018.2 1018.2 0.0
30/09:30pm 13.9 9.9 -5.8 25 7.3 ENE 7 9 4 5 1018.4 1018.4 0.0
30/09:00pm 14.3 10.3 -6.0 24 7.5 ENE 7 9 4 5 1018.5 1018.5 0.0

Other Formats:

Comma delimited format used in spreadsheet applications
http://www.bom.gov.au/fwo/IDS60801/IDS60801.94655.axf

JavaScript Object Notation format (JSON) in row-major order
http://www.bom.gov.au/fwo/IDS60801/IDS60801.94655.json